Time;durP1;ratioP1;P1;durP2;ratioP2;P2;SDS_P1;SDS_P2;PMS_P1;PMS_P2;Temp;Humidity;BMP_temperature;BMP_pressure;BME280_temperature;BME280_humidity;BME280_pressure;Samples;Min_cycle;Max_cycle;Signal;HPM_P1;HPM_P2
2022/11/24 00:01:27;;;;;;;15.63;9.80;;;6.30;99.90;;;;;;5116473;28;20402;-71
2022/11/24 00:03:56;;;;;;;15.63;9.57;;;6.30;99.90;;;;;;5116025;28;20027;-71
2022/11/24 00:06:22;;;;;;;17.13;10.02;;;6.30;99.90;;;;;;5116465;28;20019;-72
2022/11/24 00:08:48;;;;;;;13.32;9.20;;;6.30;99.90;;;;;;5115774;28;20050;-72
2022/11/24 00:11:26;;;;;;;14.27;9.45;;;6.40;99.90;;;;;;5115723;28;20031;-72
2022/11/24 00:13:52;;;;;;;15.70;9.20;;;6.30;99.90;;;;;;5115440;28;20484;-72
2022/11/24 00:16:40;;;;;;;17.15;9.80;;;6.40;99.90;;;;;;5116065;28;20094;-72
2022/11/24 00:19:08;;;;;;;14.43;8.57;;;6.40;99.90;;;;;;5116113;28;20032;-71
2022/11/24 00:21:35;;;;;;;14.30;8.48;;;6.40;99.90;;;;;;5115704;28;20484;-72
2022/11/24 00:24:01;;;;;;;16.02;8.43;;;6.40;99.90;;;;;;5115438;28;20024;-72
2022/11/24 00:26:31;;;;;;;18.08;9.38;;;6.40;99.90;;;;;;5116365;28;20028;-71
2022/11/24 00:29:00;;;;;;;16.55;9.25;;;6.40;99.90;;;;;;5115382;28;20266;-72
2022/11/24 00:31:32;;;;;;;13.32;8.57;;;6.40;99.90;;;;;;5115679;28;20028;-72
2022/11/24 00:34:00;;;;;;;16.15;9.55;;;6.30;99.90;;;;;;5115353;28;20221;-72
2022/11/24 00:36:28;;;;;;;15.57;8.88;;;6.30;99.90;;;;;;5114596;28;20477;-72
2022/11/24 00:38:56;;;;;;;16.00;9.32;;;6.40;99.90;;;;;;5115914;28;20028;-71
2022/11/24 00:41:23;;;;;;;19.33;9.88;;;6.30;99.90;;;;;;5115165;28;20145;-71
2022/11/24 00:43:49;;;;;;;14.68;8.98;;;6.40;99.90;;;;;;5115291;28;20030;-71
2022/11/24 00:46:14;;;;;;;17.48;10.05;;;6.40;99.90;;;;;;5115609;28;20019;-71
2022/11/24 00:48:40;;;;;;;16.25;10.27;;;6.40;99.90;;;;;;5115264;28;20493;-72
2022/11/24 00:51:09;;;;;;;15.23;10.52;;;6.40;99.90;;;;;;5115306;28;20034;-71
2022/11/24 00:53:35;;;;;;;16.13;9.48;;;6.40;99.90;;;;;;5115774;28;20035;-71
2022/11/24 00:56:02;;;;;;;16.13;9.32;;;6.40;99.90;;;;;;5115260;28;20028;-71
2022/11/24 00:58:29;;;;;;;19.17;10.00;;;6.40;99.90;;;;;;5115335;28;20440;-72
2022/11/24 01:00:55;;;;;;;16.20;9.52;;;6.40;99.90;;;;;;5115015;28;20413;-72
2022/11/24 01:03:21;;;;;;;15.73;10.20;;;6.40;99.90;;;;;;5115476;28;20027;-72
2022/11/24 01:05:47;;;;;;;15.10;10.88;;;6.40;99.90;;;;;;5114962;28;20035;-72
2022/11/24 01:08:13;;;;;;;15.18;10.50;;;6.40;99.90;;;;;;5115042;28;20027;-72
2022/11/24 01:10:38;;;;;;;18.92;10.90;;;6.40;99.90;;;;;;5115084;28;20549;-72
2022/11/24 01:13:04;;;;;;;15.80;10.23;;;6.40;99.90;;;;;;5114975;28;20027;-72
2022/11/24 01:15:30;;;;;;;15.15;9.90;;;6.40;99.90;;;;;;5115326;28;20028;-72
2022/11/24 01:17:56;;;;;;;16.92;10.80;;;6.40;99.90;;;;;;5114825;28;20027;-72
2022/11/24 01:20:22;;;;;;;16.17;9.95;;;6.40;99.90;;;;;;5114850;28;20091;-72
2022/11/24 01:22:48;;;;;;;16.45;10.60;;;6.40;99.90;;;;;;5094122;28;20404;-72
2022/11/24 01:25:15;;;;;;;17.08;10.93;;;6.40;99.90;;;;;;5094764;28;20027;-72
2022/11/24 01:27:40;;;;;;;17.40;11.95;;;6.40;99.90;;;;;;5093485;28;20058;-71
2022/11/24 01:30:07;;;;;;;19.80;12.73;;;6.40;99.90;;;;;;5094039;28;20031;-72
2022/11/24 01:32:34;;;;;;;21.23;12.18;;;6.40;99.90;;;;;;5094241;28;20066;-72
2022/11/24 01:35:04;;;;;;;20.75;13.57;;;6.40;99.90;;;;;;5094109;28;20055;-72
2022/11/24 01:37:30;;;;;;;20.05;13.63;;;6.40;99.90;;;;;;5094168;28;20031;-71
2022/11/24 01:39:55;;;;;;;20.27;12.68;;;6.40;99.90;;;;;;5093788;28;20027;-72
2022/11/24 01:42:21;;;;;;;20.95;13.65;;;6.40;99.90;;;;;;5094231;28;20024;-71
2022/11/24 01:44:50;;;;;;;24.88;14.13;;;6.30;99.90;;;;;;5093722;28;20028;-73
2022/11/24 01:47:39;;;;;;;19.85;14.25;;;6.30;99.90;;;;;;5094295;28;20031;-71
2022/11/24 01:50:12;;;;;;;22.25;14.45;;;6.30;99.90;;;;;;5093793;28;20040;-71
2022/11/24 01:52:42;;;;;;;23.60;14.73;;;6.20;99.90;;;;;;5094272;28;20020;-71
2022/11/24 01:55:15;;;;;;;25.23;14.57;;;6.20;99.90;;;;;;5093823;28;20142;-71
2022/11/24 01:57:45;;;;;;;21.85;14.07;;;6.10;99.90;;;;;;5094423;28;20020;-71
2022/11/24 02:00:13;;;;;;;18.70;13.53;;;6.10;99.90;;;;;;5094237;28;20032;-72
2022/11/24 02:02:41;;;;;;;20.52;13.88;;;6.10;99.90;;;;;;5093929;28;20253;-72
2022/11/24 02:05:16;;;;;;;21.58;13.07;;;6.10;99.90;;;;;;5093474;28;20024;-71
2022/11/24 02:07:42;;;;;;;20.33;14.10;;;6.10;99.90;;;;;;5094023;28;20085;-71
2022/11/24 02:10:12;;;;;;;18.60;13.73;;;6.10;99.90;;;;;;5093305;28;20060;-71
2022/11/24 02:12:41;;;;;;;17.63;12.85;;;6.10;99.90;;;;;;5093760;28;20020;-71
2022/11/24 02:15:08;;;;;;;20.63;13.95;;;6.00;99.90;;;;;;5093068;28;20296;-71
2022/11/24 02:17:34;;;;;;;20.30;13.15;;;6.00;99.90;;;;;;5106739;28;20115;-71
2022/11/24 02:20:03;;;;;;;21.20;13.82;;;6.00;99.90;;;;;;5113010;28;20106;-72
2022/11/24 02:22:43;;;;;;;17.02;12.20;;;6.00;99.90;;;;;;5113870;28;20038;-71
2022/11/24 02:25:30;;;;;;;19.35;13.48;;;5.90;99.90;;;;;;5113615;28;20027;-72
2022/11/24 02:27:58;;;;;;;18.25;12.18;;;6.00;99.90;;;;;;5113287;28;20038;-72
2022/11/24 02:30:24;;;;;;;19.55;12.45;;;6.00;99.90;;;;;;5113002;28;20031;-72
2022/11/24 02:32:51;;;;;;;20.88;12.10;;;5.90;99.90;;;;;;5113175;28;20028;-72
2022/11/24 02:35:17;;;;;;;17.52;12.95;;;5.90;99.90;;;;;;5113880;28;20465;-72
2022/11/24 02:37:43;;;;;;;17.05;11.90;;;5.90;99.90;;;;;;5114003;28;20035;-72
2022/11/24 02:40:09;;;;;;;20.85;14.00;;;5.80;99.90;;;;;;5113212;28;20554;-71
2022/11/24 02:42:41;;;;;;;22.15;14.30;;;5.80;99.90;;;;;;5113007;28;20027;-71
2022/11/24 02:45:08;;;;;;;17.98;13.15;;;5.70;99.90;;;;;;5113163;28;20028;-72
2022/11/24 02:47:34;;;;;;;21.80;15.90;;;5.70;99.90;;;;;;5111825;28;20038;-71
2022/11/24 02:49:59;;;;;;;22.70;15.27;;;5.70;99.90;;;;;;5112831;28;20027;-71
2022/11/24 02:52:25;;;;;;;26.15;16.33;;;5.70;99.90;;;;;;5113379;28;20142;-71
2022/11/24 02:54:51;;;;;;;22.90;16.33;;;5.70;99.90;;;;;;5112693;28;20024;-74
2022/11/24 02:57:16;;;;;;;23.10;16.02;;;5.70;99.90;;;;;;5113322;28;20031;-72
2022/11/24 02:59:42;;;;;;;28.13;16.20;;;5.70;99.90;;;;;;5113065;28;20042;-73
2022/11/24 03:02:09;;;;;;;23.67;16.40;;;5.70;99.90;;;;;;5112804;28;20482;-72
2022/11/24 03:04:34;;;;;;;25.77;17.17;;;5.70;99.90;;;;;;5113220;28;20023;-72
2022/11/24 03:07:00;;;;;;;25.35;16.15;;;5.60;99.90;;;;;;5112427;28;20027;-71
2022/11/24 03:09:26;;;;;;;28.50;16.83;;;5.70;99.90;;;;;;5112884;28;20393;-71
2022/11/24 03:11:51;;;;;;;22.30;16.13;;;5.70;99.90;;;;;;5113026;28;20034;-74
2022/11/24 03:14:17;;;;;;;28.80;17.23;;;5.70;99.90;;;;;;5112786;28;20074;-72
2022/11/24 03:16:43;;;;;;;21.70;15.38;;;5.60;99.90;;;;;;5113449;28;20084;-71
2022/11/24 03:19:08;;;;;;;25.55;16.40;;;5.70;99.90;;;;;;5112626;28;20059;-72
2022/11/24 03:21:35;;;;;;;22.90;15.85;;;5.70;99.90;;;;;;5112954;28;20480;-72
2022/11/24 03:24:01;;;;;;;23.27;15.30;;;5.70;99.90;;;;;;5112677;28;20020;-71
2022/11/24 03:26:26;;;;;;;21.90;15.63;;;5.70;99.90;;;;;;5112585;28;20042;-71
2022/11/24 03:28:54;;;;;;;22.27;14.77;;;5.70;99.90;;;;;;5112139;28;20450;-71
2022/11/24 03:31:21;;;;;;;19.00;13.60;;;5.70;99.90;;;;;;5112629;28;20033;-73
2022/11/24 03:33:46;;;;;;;18.10;12.05;;;5.70;99.90;;;;;;5112883;28;20076;-72
2022/11/24 03:36:12;;;;;;;18.30;11.75;;;5.70;99.90;;;;;;5112476;28;20048;-72
2022/11/24 03:38:38;;;;;;;18.17;11.93;;;5.70;99.90;;;;;;5112797;28;20051;-72
2022/11/24 03:41:03;;;;;;;15.77;11.43;;;5.70;99.90;;;;;;5112404;28;20030;-71
2022/11/24 03:43:29;;;;;;;16.80;11.27;;;5.70;99.90;;;;;;5113046;28;20516;-72
2022/11/24 03:45:55;;;;;;;16.70;11.10;;;5.60;99.90;;;;;;5112532;28;20058;-75
2022/11/24 03:48:21;;;;;;;17.48;12.40;;;5.60;99.90;;;;;;5112758;28;20068;-72
2022/11/24 03:50:55;;;;;;;17.58;10.73;;;5.60;99.90;;;;;;5112796;28;20027;-71
2022/11/24 03:53:21;;;;;;;17.10;10.90;;;5.60;99.90;;;;;;5112366;28;20062;-71
2022/11/24 03:55:47;;;;;;;16.20;10.77;;;5.60;99.90;;;;;;5112760;28;20019;-71
2022/11/24 03:58:12;;;;;;;16.92;11.30;;;5.60;99.90;;;;;;5112351;28;20479;-71
2022/11/24 04:00:38;;;;;;;15.80;10.77;;;5.50;99.90;;;;;;5112775;28;20115;-71
2022/11/24 04:03:04;;;;;;;17.13;11.25;;;5.50;99.90;;;;;;5110977;28;20028;-71
2022/11/24 04:05:30;;;;;;;18.50;12.02;;;5.50;99.90;;;;;;5112736;28;20361;-72
2022/11/24 04:08:02;;;;;;;18.33;11.98;;;5.50;99.90;;;;;;5112654;28;20102;-71
2022/11/24 04:10:28;;;;;;;17.25;11.65;;;5.40;99.90;;;;;;5110868;28;20032;-72
2022/11/24 04:12:54;;;;;;;17.02;12.02;;;5.40;99.90;;;;;;5123578;28;20033;-71
2022/11/24 04:15:20;;;;;;;18.15;12.93;;;5.30;99.90;;;;;;5118717;28;20019;-73
2022/11/24 04:17:47;;;;;;;18.98;12.93;;;5.30;99.90;;;;;;5122923;28;20089;-71
2022/11/24 04:20:14;;;;;;;20.77;12.93;;;5.30;99.90;;;;;;5119646;28;20098;-71
2022/11/24 04:22:40;;;;;;;19.60;12.77;;;5.30;99.90;;;;;;5112184;28;20058;-72
2022/11/24 04:25:07;;;;;;;17.70;12.80;;;5.30;99.90;;;;;;5110877;28;20020;-72
2022/11/24 04:27:34;;;;;;;17.30;11.70;;;5.20;99.90;;;;;;5092346;28;20415;-72
2022/11/24 04:30:00;;;;;;;20.80;12.98;;;5.20;99.90;;;;;;5091369;28;20031;-73
2022/11/24 04:32:25;;;;;;;23.65;13.52;;;5.20;99.90;;;;;;5091360;28;20028;-71
2022/11/24 04:34:51;;;;;;;17.67;12.57;;;5.20;99.90;;;;;;5091846;28;20076;-72
2022/11/24 04:37:17;;;;;;;21.27;13.65;;;5.20;99.90;;;;;;5091174;28;20025;-71
2022/11/24 04:39:43;;;;;;;21.65;13.98;;;5.20;99.90;;;;;;5091718;28;20028;-71
2022/11/24 04:42:09;;;;;;;19.98;13.63;;;5.10;99.90;;;;;;5092863;28;20407;-71
2022/11/24 04:44:34;;;;;;;17.92;12.57;;;5.10;99.90;;;;;;5095576;28;20039;-71
2022/11/24 04:47:00;;;;;;;20.88;13.00;;;5.10;99.90;;;;;;5095104;28;20035;-75
2022/11/24 04:49:26;;;;;;;20.98;13.15;;;5.20;99.90;;;;;;5094701;28;20036;-71
2022/11/24 04:51:51;;;;;;;21.08;13.65;;;5.10;99.90;;;;;;5128235;27;20461;-71
2022/11/24 04:54:17;;;;;;;19.35;13.10;;;5.10;99.90;;;;;;5094818;28;20032;-71
2022/11/24 04:56:43;;;;;;;19.35;13.18;;;5.20;99.90;;;;;;5095275;28;20061;-71
2022/11/24 04:59:15;;;;;;;18.92;12.45;;;5.20;99.90;;;;;;5094464;28;20042;-71
2022/11/24 05:01:45;;;;;;;20.25;12.57;;;5.20;99.90;;;;;;5094905;28;20032;-72
2022/11/24 05:04:12;;;;;;;19.38;12.20;;;5.10;99.90;;;;;;5094548;28;20020;-73
2022/11/24 05:06:38;;;;;;;17.77;12.73;;;5.10;99.90;;;;;;5108336;28;20027;-72
2022/11/24 05:09:04;;;;;;;21.10;12.85;;;5.20;99.90;;;;;;5115037;28;20036;-75
2022/11/24 05:11:30;;;;;;;17.42;12.32;;;5.10;99.90;;;;;;5115277;28;20130;-72
2022/11/24 05:13:56;;;;;;;16.35;11.70;;;5.20;99.90;;;;;;5115213;28;20431;-72
2022/11/24 05:16:21;;;;;;;18.15;12.07;;;5.10;99.90;;;;;;5113245;28;20406;-72
2022/11/24 05:18:47;;;;;;;18.40;11.98;;;5.20;99.90;;;;;;5115038;28;20349;-72
2022/11/24 05:21:13;;;;;;;19.52;11.65;;;5.20;99.90;;;;;;5114478;28;20027;-72
2022/11/24 05:23:38;;;;;;;17.10;11.20;;;5.20;99.90;;;;;;5115405;28;20186;-71
2022/11/24 05:26:04;;;;;;;17.85;11.90;;;5.10;99.90;;;;;;5114094;28;20415;-76
2022/11/24 05:28:30;;;;;;;14.45;10.93;;;5.10;99.90;;;;;;5114663;28;20471;-71
2022/11/24 05:31:00;;;;;;;16.85;11.43;;;5.10;99.90;;;;;;5114643;28;20039;-71
2022/11/24 05:33:27;;;;;;;14.77;10.25;;;5.10;99.90;;;;;;5114270;28;20016;-72
2022/11/24 05:35:53;;;;;;;15.15;10.07;;;5.10;99.90;;;;;;5114409;28;20043;-71
2022/11/24 05:38:21;;;;;;;16.08;10.60;;;5.10;99.90;;;;;;5113796;28;20463;-72
2022/11/24 05:40:47;;;;;;;15.35;9.68;;;5.10;99.90;;;;;;5114602;28;20499;-71
2022/11/24 05:43:14;;;;;;;12.68;9.38;;;5.10;99.90;;;;;;5114192;28;20059;-73
2022/11/24 05:45:40;;;;;;;12.07;9.40;;;5.10;99.90;;;;;;5114570;28;20072;-72
2022/11/24 05:48:07;;;;;;;13.30;9.35;;;5.10;99.90;;;;;;5114263;28;20028;-76
2022/11/24 05:50:34;;;;;;;12.00;8.73;;;5.10;99.90;;;;;;5114447;28;20161;-72
2022/11/24 05:53:11;;;;;;;11.45;9.25;;;5.20;99.90;;;;;;5113120;28;20467;-72
2022/11/24 05:55:38;;;;;;;11.93;8.43;;;5.20;99.90;;;;;;5114155;28;20467;-73
2022/11/24 05:58:06;;;;;;;13.68;8.35;;;5.20;99.90;;;;;;5114031;28;20076;-72
2022/11/24 06:00:33;;;;;;;11.32;8.45;;;5.10;99.90;;;;;;5114148;28;20028;-73
2022/11/24 06:02:59;;;;;;;10.27;7.38;;;5.20;99.90;;;;;;5114044;28;20034;-73
2022/11/24 06:05:26;;;;;;;11.60;8.57;;;5.20;99.90;;;;;;5113635;28;20023;-73
2022/11/24 06:07:52;;;;;;;11.55;8.20;;;5.20;99.90;;;;;;5113918;28;20104;-72
2022/11/24 06:10:20;;;;;;;11.27;8.30;;;5.20;99.90;;;;;;5113728;28;20028;-73
2022/11/24 06:12:46;;;;;;;12.23;7.68;;;5.10;99.90;;;;;;5114013;28;20476;-73
2022/11/24 06:15:12;;;;;;;10.98;8.13;;;5.20;99.90;;;;;;5113182;28;20537;-73
2022/11/24 06:17:39;;;;;;;10.73;8.02;;;5.10;99.90;;;;;;5113711;28;20028;-73
2022/11/24 06:20:06;;;;;;;10.45;6.88;;;5.20;99.90;;;;;;5113401;28;20056;-73
2022/11/24 06:22:32;;;;;;;9.85;7.20;;;5.20;99.90;;;;;;5112887;28;20116;-72
2022/11/24 06:24:58;;;;;;;10.23;7.53;;;5.20;99.90;;;;;;5113622;28;20035;-73
2022/11/24 06:27:24;;;;;;;11.68;7.05;;;5.20;99.90;;;;;;5114590;27;20023;-73
2022/11/24 06:29:49;;;;;;;9.35;7.00;;;5.20;99.90;;;;;;5130902;27;20067;-73
2022/11/24 06:32:15;;;;;;;10.35;7.35;;;5.20;99.90;;;;;;5112649;28;20107;-73
2022/11/24 06:34:41;;;;;;;9.77;6.78;;;5.20;99.90;;;;;;5113034;28;20088;-72
2022/11/24 06:37:07;;;;;;;8.55;6.30;;;5.30;99.90;;;;;;5112244;28;20020;-72
2022/11/24 06:39:33;;;;;;;8.77;5.95;;;5.30;99.90;;;;;;5112953;28;20027;-72
2022/11/24 06:41:59;;;;;;;8.27;6.47;;;5.30;99.90;;;;;;5113484;28;20392;-72
2022/11/24 06:44:24;;;;;;;10.80;6.90;;;5.30;99.90;;;;;;5113383;28;20032;-72
2022/11/24 06:46:50;;;;;;;8.18;5.70;;;5.30;99.90;;;;;;5114776;28;20026;-72
2022/11/24 06:49:16;;;;;;;7.90;5.90;;;5.30;99.90;;;;;;5114121;28;20115;-73
2022/11/24 06:51:42;;;;;;;8.20;5.80;;;5.40;99.90;;;;;;5114863;28;20067;-71
2022/11/24 06:54:09;;;;;;;7.93;5.65;;;5.40;99.90;;;;;;5114438;28;20026;-71
2022/11/24 06:56:35;;;;;;;9.80;6.03;;;5.40;99.90;;;;;;5114739;28;20023;-71
2022/11/24 06:59:01;;;;;;;9.95;5.57;;;5.40;99.90;;;;;;5114960;28;20241;-72
2022/11/24 07:01:28;;;;;;;8.20;5.82;;;5.50;99.90;;;;;;5113994;28;20024;-72
2022/11/24 07:03:55;;;;;;;7.10;5.35;;;5.50;99.90;;;;;;5113796;28;20031;-72
2022/11/24 07:06:22;;;;;;;7.68;6.00;;;5.50;99.90;;;;;;5112341;28;20034;-71
2022/11/24 07:08:49;;;;;;;8.57;5.32;;;5.50;99.90;;;;;;5111049;28;20032;-71
2022/11/24 07:11:17;;;;;;;9.73;5.45;;;5.50;99.90;;;;;;5113124;28;20031;-72
2022/11/24 07:13:43;;;;;;;6.13;5.10;;;5.50;99.90;;;;;;5114130;28;20500;-72
2022/11/24 07:16:30;;;;;;;7.50;5.30;;;5.60;99.90;;;;;;5112800;28;20051;-72
2022/11/24 07:18:57;;;;;;;6.47;4.88;;;5.60;99.90;;;;;;5112859;28;20380;-71
2022/11/24 07:21:24;;;;;;;9.27;5.35;;;5.60;99.90;;;;;;5112423;28;20113;-71
2022/11/24 07:23:52;;;;;;;8.32;4.25;;;5.60;99.90;;;;;;5112699;28;20054;-71
2022/11/24 07:26:18;;;;;;;10.82;5.38;;;5.70;99.90;;;;;;5111037;28;20074;-72
2022/11/24 07:28:44;;;;;;;7.70;5.50;;;5.70;99.90;;;;;;5112499;28;20464;-72
2022/11/24 07:31:13;;;;;;;7.15;4.75;;;5.70;99.90;;;;;;5112263;28;20032;-72
2022/11/24 07:33:39;;;;;;;10.77;5.00;;;5.80;99.90;;;;;;5111912;28;20041;-71
2022/11/24 07:36:06;;;;;;;10.10;5.13;;;5.80;99.90;;;;;;5112017;28;20527;-71
2022/11/24 07:38:32;;;;;;;6.65;4.75;;;5.80;99.90;;;;;;5112213;28;20405;-71
2022/11/24 07:41:02;;;;;;;7.70;4.85;;;5.90;99.90;;;;;;5112620;28;20024;-72
2022/11/24 07:43:30;;;;;;;11.70;4.88;;;5.90;99.90;;;;;;5112116;28;20032;-72
2022/11/24 07:45:56;;;;;;;14.40;4.97;;;6.00;99.90;;;;;;5112203;28;20067;-72
2022/11/24 07:48:21;;;;;;;10.77;5.35;;;6.00;99.90;;;;;;5112089;28;20481;-71
2022/11/24 07:50:47;;;;;;;8.75;4.63;;;6.00;99.90;;;;;;5112451;28;20036;-72
2022/11/24 07:53:13;;;;;;;6.32;4.75;;;6.00;99.90;;;;;;5112052;28;20019;-72
2022/11/24 07:55:39;;;;;;;6.20;4.25;;;6.10;99.90;;;;;;5111885;28;20063;-72
2022/11/24 07:58:04;;;;;;;5.78;4.15;;;6.10;99.90;;;;;;5112445;28;20466;-71
2022/11/24 08:00:30;;;;;;;7.45;4.40;;;6.20;99.90;;;;;;5111707;28;20107;-73
2022/11/24 08:02:56;;;;;;;6.30;4.35;;;6.20;99.90;;;;;;5112594;28;20390;-72
2022/11/24 08:05:21;;;;;;;6.32;3.83;;;6.20;99.90;;;;;;5111865;28;20023;-72
2022/11/24 08:07:47;;;;;;;12.68;4.38;;;6.30;99.90;;;;;;5111960;28;20027;-72
2022/11/24 08:10:12;;;;;;;6.28;4.30;;;6.30;99.90;;;;;;5112454;28;20032;-72
2022/11/24 08:12:38;;;;;;;6.85;4.13;;;6.30;99.90;;;;;;5111911;28;20030;-72
2022/11/24 08:15:05;;;;;;;8.90;4.45;;;6.40;99.90;;;;;;5111959;28;20402;-72
2022/11/24 08:17:30;;;;;;;9.57;4.63;;;6.40;99.90;;;;;;5113764;28;20024;-72
2022/11/24 08:19:56;;;;;;;5.15;3.70;;;6.40;99.90;;;;;;5114629;28;20023;-72
2022/11/24 08:22:21;;;;;;;6.43;4.05;;;6.40;99.90;;;;;;5115579;28;20023;-73
2022/11/24 08:24:48;;;;;;;8.63;4.03;;;6.40;99.90;;;;;;5116135;28;20016;-72
2022/11/24 08:27:14;;;;;;;4.25;3.45;;;6.40;99.90;;;;;;5115315;28;20020;-72
2022/11/24 08:29:41;;;;;;;6.50;4.20;;;6.50;99.90;;;;;;5115143;28;20585;-72
2022/11/24 08:32:08;;;;;;;4.65;3.45;;;6.40;99.90;;;;;;5116207;28;20096;-72
2022/11/24 08:34:34;;;;;;;5.70;4.20;;;6.40;99.90;;;;;;5115084;28;20122;-72
2022/11/24 08:37:01;;;;;;;6.70;4.30;;;6.50;99.90;;;;;;5115901;28;20160;-72
2022/11/24 08:39:27;;;;;;;6.63;3.67;;;6.50;99.90;;;;;;5115170;28;20032;-72
2022/11/24 08:41:53;;;;;;;6.85;3.80;;;6.50;99.90;;;;;;5115728;28;20032;-72
2022/11/24 08:44:18;;;;;;;5.82;3.72;;;6.50;99.90;;;;;;5115843;28;20479;-71
2022/11/24 08:46:45;;;;;;;7.63;3.72;;;6.50;99.90;;;;;;5115267;28;20448;-71
2022/11/24 08:49:13;;;;;;;11.27;4.22;;;6.50;99.90;;;;;;5115701;28;20040;-72
2022/11/24 08:51:38;;;;;;;8.52;3.88;;;6.50;99.90;;;;;;5113957;28;20028;-72
2022/11/24 08:54:04;;;;;;;6.57;4.07;;;6.50;99.90;;;;;;5115277;28;20383;-72
2022/11/24 08:56:32;;;;;;;4.10;3.08;;;6.50;99.90;;;;;;5115065;28;20034;-71
2022/11/24 08:58:58;;;;;;;6.35;3.05;;;6.50;99.90;;;;;;5115539;28;20030;-71
2022/11/24 09:01:24;;;;;;;5.60;3.45;;;6.50;99.90;;;;;;5115305;28;20076;-72
2022/11/24 09:03:50;;;;;;;5.03;3.47;;;6.50;99.90;;;;;;5115290;28;20447;-71
2022/11/24 09:06:22;;;;;;;4.38;3.20;;;6.60;99.90;;;;;;5115137;28;20380;-71
2022/11/24 09:08:48;;;;;;;6.40;3.63;;;6.60;99.90;;;;;;5114984;28;20122;-70
2022/11/24 09:11:15;;;;;;;7.57;3.60;;;6.60;99.90;;;;;;5115209;28;20571;-72
2022/11/24 09:13:41;;;;;;;5.10;3.70;;;6.60;99.90;;;;;;5114330;28;20032;-72
2022/11/24 09:16:10;;;;;;;5.25;3.83;;;6.60;99.90;;;;;;5114961;28;20023;-72
2022/11/24 09:18:36;;;;;;;5.43;3.70;;;6.60;99.90;;;;;;5114725;28;20019;-72
2022/11/24 09:21:20;;;;;;;6.35;4.10;;;6.60;99.90;;;;;;5115070;28;20547;-72
2022/11/24 09:23:48;;;;;;;6.25;4.07;;;6.60;99.90;;;;;;5114499;28;20040;-72
2022/11/24 09:26:16;;;;;;;4.57;3.90;;;6.60;99.90;;;;;;5114708;28;20519;-72
2022/11/24 09:28:43;;;;;;;7.45;4.47;;;6.60;99.90;;;;;;5114134;28;20489;-72
2022/11/24 09:31:12;;;;;;;6.85;4.43;;;6.60;99.90;;;;;;5114621;28;20035;-72
2022/11/24 09:33:38;;;;;;;7.55;4.50;;;6.70;99.90;;;;;;5114280;28;20024;-72
2022/11/24 09:36:05;;;;;;;6.65;4.70;;;6.60;99.90;;;;;;5114944;28;20075;-72
2022/11/24 09:38:31;;;;;;;13.27;5.85;;;6.70;99.90;;;;;;5114251;28;20035;-73
2022/11/24 09:41:17;;;;;;;7.85;5.20;;;6.70;99.90;;;;;;5114710;28;20023;-72
2022/11/24 09:43:58;;;;;;;10.60;5.32;;;6.80;99.90;;;;;;5114179;28;20053;-71
2022/11/24 09:46:55;;;;;;;8.82;5.18;;;6.80;99.90;;;;;;5114582;28;20024;-72
2022/11/24 09:49:43;;;;;;;9.23;5.35;;;6.80;99.90;;;;;;5113387;28;20046;-71
2022/11/24 09:52:14;;;;;;;7.97;4.43;;;6.90;99.90;;;;;;5114402;28;20028;-72
2022/11/24 09:54:58;;;;;;;10.23;4.75;;;6.90;99.90;;;;;;5113828;28;20389;-72
2022/11/24 09:57:25;;;;;;;8.45;4.93;;;6.90;99.90;;;;;;5114350;28;20039;-73
2022/11/24 09:59:51;;;;;;;10.25;5.38;;;6.90;99.90;;;;;;5114111;28;20376;-71
2022/11/24 10:02:16;;;;;;;7.88;4.80;;;6.90;99.90;;;;;;5113867;28;20026;-71
2022/11/24 10:04:45;;;;;;;6.57;4.88;;;7.00;99.90;;;;;;5113739;28;20456;-72
2022/11/24 10:07:10;;;;;;;8.07;5.28;;;7.00;99.90;;;;;;5114128;28;20337;-72
2022/11/24 10:09:55;;;;;;;9.02;5.63;;;7.10;99.90;;;;;;5113392;28;20031;-72
2022/11/24 10:13:04;;;;;;;9.55;5.97;;;7.10;99.90;;;;;;5114007;28;20353;-72
2022/11/24 10:15:51;;;;;;;9.43;5.60;;;7.10;99.90;;;;;;5099516;28;20040;-73
2022/11/24 10:18:47;;;;;;;9.48;5.70;;;7.20;99.90;;;;;;5093625;28;20024;-72
2022/11/24 10:21:33;;;;;;;11.98;6.35;;;7.20;99.90;;;;;;5093061;28;20449;-71
2022/11/24 10:24:21;;;;;;;10.07;6.03;;;7.30;99.90;;;;;;5093137;28;20024;-72
2022/11/24 10:27:02;;;;;;;8.23;6.50;;;7.30;99.90;;;;;;5092855;28;20024;-72
2022/11/24 10:29:41;;;;;;;11.90;6.82;;;7.30;99.90;;;;;;5093334;28;20028;-75
2022/11/24 10:32:21;;;;;;;13.70;6.50;;;7.40;99.90;;;;;;5104908;28;20027;-72
2022/11/24 10:34:50;;;;;;;13.13;7.10;;;7.40;99.90;;;;;;5111950;28;20044;-71
2022/11/24 10:37:32;;;;;;;11.63;6.72;;;7.40;99.90;;;;;;5113684;28;20377;-71
2022/11/24 10:40:10;;;;;;;12.60;6.07;;;7.50;99.90;;;;;;5112839;28;20148;-72
2022/11/24 10:42:36;;;;;;;9.55;6.30;;;7.50;99.90;;;;;;5113287;28;20027;-72
2022/11/24 10:45:17;;;;;;;9.52;6.50;;;7.50;99.90;;;;;;5113517;28;20024;-72
2022/11/24 10:47:44;;;;;;;10.52;7.75;;;7.60;99.90;;;;;;5112775;28;20023;-72
2022/11/24 10:50:10;;;;;;;11.93;6.43;;;7.60;99.90;;;;;;5113533;28;20043;-72
2022/11/24 10:52:47;;;;;;;8.40;6.10;;;7.60;99.90;;;;;;5112911;28;20028;-73
2022/11/24 10:55:13;;;;;;;11.85;7.00;;;7.50;99.90;;;;;;5113526;28;20063;-71
2022/11/24 10:57:40;;;;;;;9.60;6.40;;;7.60;99.90;;;;;;5112625;28;20388;-72
2022/11/24 11:00:17;;;;;;;10.95;6.05;;;7.60;99.90;;;;;;5113316;28;20501;-72
2022/11/24 11:02:44;;;;;;;10.35;6.50;;;7.60;99.90;;;;;;5112866;28;20023;-71
2022/11/24 11:05:43;;;;;;;10.93;6.55;;;7.70;99.90;;;;;;5113153;28;20478;-71
2022/11/24 11:08:28;;;;;;;9.85;5.90;;;7.80;99.90;;;;;;5079350;28;20036;-71
2022/11/24 11:11:13;;;;;;;8.07;5.43;;;7.80;99.90;;;;;;5112287;28;20533;-71
2022/11/24 11:13:50;;;;;;;11.07;4.78;;;7.80;99.90;;;;;;5112664;28;20034;-71
2022/11/24 11:16:49;;;;;;;7.55;4.13;;;7.80;99.90;;;;;;5113436;28;20032;-72
2022/11/24 11:19:41;;;;;;;9.13;5.28;;;7.80;99.90;;;;;;5092199;28;20042;-72
2022/11/24 11:22:10;;;;;;;11.25;4.68;;;7.80;99.90;;;;;;5112994;28;20023;-72
2022/11/24 11:24:38;;;;;;;10.48;5.30;;;7.80;99.90;;;;;;5111882;28;20057;-72
2022/11/24 11:27:17;;;;;;;7.75;4.32;;;7.80;99.90;;;;;;5092519;28;20055;-72
2022/11/24 11:29:43;;;;;;;9.23;4.53;;;7.80;99.90;;;;;;5091853;28;20434;-71
2022/11/24 11:32:22;;;;;;;9.75;4.38;;;7.80;99.90;;;;;;5091234;28;20103;-72
2022/11/24 11:34:50;;;;;;;10.23;4.72;;;7.80;99.90;;;;;;5090313;28;20135;-72
2022/11/24 11:37:17;;;;;;;9.63;4.30;;;7.80;99.90;;;;;;5092492;28;20032;-72
2022/11/24 11:39:52;;;;;;;7.95;3.92;;;7.80;99.90;;;;;;5091807;28;20024;-72
2022/11/24 11:42:53;;;;;;;7.72;4.20;;;7.80;99.90;;;;;;5092256;28;20020;-71
2022/11/24 11:45:35;;;;;;;8.45;4.15;;;7.80;99.90;;;;;;5059350;28;20119;-72
2022/11/24 11:48:00;;;;;;;8.00;4.30;;;7.90;99.90;;;;;;5092226;28;20099;-72
2022/11/24 11:50:47;;;;;;;10.35;5.10;;;7.90;99.90;;;;;;5092438;28;20111;-72
2022/11/24 11:53:43;;;;;;;9.75;5.07;;;7.90;99.90;;;;;;5096439;28;20413;-71
2022/11/24 11:56:25;;;;;;;6.85;4.30;;;8.00;99.90;;;;;;5096424;28;20054;-72
2022/11/24 11:59:22;;;;;;;9.38;4.22;;;8.00;99.90;;;;;;5095905;28;20522;-73
2022/11/24 12:02:22;;;;;;;7.72;4.20;;;8.00;99.90;;;;;;5095934;28;20035;-72
2022/11/24 12:04:47;;;;;;;6.00;4.43;;;8.00;99.90;;;;;;5095609;28;20133;-73
2022/11/24 12:07:36;;;;;;;7.93;4.43;;;8.00;99.90;;;;;;5095950;28;20051;-73
2022/11/24 12:10:13;;;;;;;9.32;4.28;;;8.10;99.90;;;;;;5096019;28;20484;-73
2022/11/24 12:13:12;;;;;;;7.88;5.03;;;8.00;99.90;;;;;;5095531;28;20035;-73
2022/11/24 12:15:50;;;;;;;8.13;5.38;;;8.00;99.90;;;;;;5095330;28;20099;-73
2022/11/24 12:18:29;;;;;;;9.20;4.82;;;8.10;99.90;;;;;;5095687;28;20024;-73
2022/11/24 12:20:55;;;;;;;8.52;4.38;;;8.10;99.90;;;;;;5095505;28;20032;-71
2022/11/24 12:23:54;;;;;;;5.65;4.00;;;8.10;99.90;;;;;;5095888;28;20027;-72
2022/11/24 12:26:31;;;;;;;8.15;4.13;;;8.00;99.90;;;;;;5095864;28;20052;-72
2022/11/24 12:29:12;;;;;;;13.13;5.10;;;8.10;99.90;;;;;;5114111;28;20343;-71
2022/11/24 12:31:45;;;;;;;6.20;4.18;;;8.00;99.90;;;;;;5116025;28;20102;-74
2022/11/24 12:34:16;;;;;;;7.30;3.75;;;8.00;99.90;;;;;;5115585;28;20104;-72
2022/11/24 12:36:59;;;;;;;6.45;3.00;;;8.00;99.90;;;;;;5115393;28;20332;-73
2022/11/24 12:39:37;;;;;;;5.75;3.00;;;7.90;99.90;;;;;;5115805;28;20043;-73
2022/11/24 12:42:17;;;;;;;4.72;2.90;;;7.90;99.90;;;;;;5115632;28;20440;-71
2022/11/24 12:45:17;;;;;;;4.32;2.78;;;7.90;99.90;;;;;;5115092;28;20369;-72
2022/11/24 12:47:54;;;;;;;6.30;2.92;;;7.80;99.90;;;;;;5115347;28;20024;-72
2022/11/24 12:50:28;;;;;;;6.53;2.95;;;7.80;99.90;;;;;;5115644;28;20035;-72
2022/11/24 12:53:25;;;;;;;6.53;2.40;;;7.80;99.90;;;;;;5115115;28;20058;-71
2022/11/24 12:55:52;;;;;;;8.05;3.03;;;7.80;99.90;;;;;;5102134;28;20437;-71
2022/11/24 12:58:49;;;;;;;6.93;2.63;;;7.80;99.90;;;;;;5115406;28;20024;-73
2022/11/24 13:01:33;;;;;;;8.85;3.40;;;7.80;99.90;;;;;;5115533;27;20106;-72
2022/11/24 13:04:16;;;;;;;7.90;3.17;;;7.80;99.90;;;;;;5114520;28;20291;-72